sensor_id;sensor_type;location;lat;lon;timestamp;pressure;altitude;pressure_sealevel;temperature;humidity
13058;BME280;6595;49.578;11.012;2023-07-24T00:00:23;983.712;;;20.38;52.7
13058;BME280;6595;49.578;11.012;2023-07-24T00:02:24;984.396;;;20.35;53.6
13058;BME280;6595;49.578;11.012;2023-07-24T00:04:24;984.332;;;20.38;54.1
13058;BME280;6595;49.578;11.012;2023-07-24T00:06:23;984.421;;;20.32;58.2
13058;BME280;6595;49.578;11.012;2023-07-24T00:08:23;984.378;;;20.28;59.4
13058;BME280;6595;49.578;11.012;2023-07-24T00:10:24;984.276;;;20.07;62.2
13058;BME280;6595;49.578;11.012;2023-07-24T00:12:23;984.210;;;20.00;63.5
13058;BME280;6595;49.578;11.012;2023-07-24T00:14:24;983.863;;;19.70;67.0
13058;BME280;6595;49.578;11.012;2023-07-24T00:16:24;983.631;;;19.46;66.6
13058;BME280;6595;49.578;11.012;2023-07-24T00:18:23;983.601;;;19.42;68.8
13058;BME280;6595;49.578;11.012;2023-07-24T00:20:24;983.691;;;19.22;69.8
13058;BME280;6595;49.578;11.012;2023-07-24T00:22:24;983.713;;;19.20;69.9
13058;BME280;6595;49.578;11.012;2023-07-24T00:24:23;983.608;;;19.05;70.2
13058;BME280;6595;49.578;11.012;2023-07-24T00:26:23;983.637;;;18.89;70.4
13058;BME280;6595;49.578;11.012;2023-07-24T00:28:24;983.758;;;18.75;70.2
13058;BME280;6595;49.578;11.012;2023-07-24T00:30:23;983.960;;;18.72;71.1
13058;BME280;6595;49.578;11.012;2023-07-24T00:32:23;984.175;;;18.72;71.6
13058;BME280;6595;49.578;11.012;2023-07-24T00:34:23;984.255;;;18.58;72.7
13058;BME280;6595;49.578;11.012;2023-07-24T00:36:24;984.237;;;18.59;71.9
13058;BME280;6595;49.578;11.012;2023-07-24T00:38:24;984.327;;;18.55;73.0
13058;BME280;6595;49.578;11.012;2023-07-24T00:40:23;984.256;;;18.47;74.0
13058;BME280;6595;49.578;11.012;2023-07-24T00:42:23;984.237;;;18.41;73.5
13058;BME280;6595;49.578;11.012;2023-07-24T00:44:24;984.205;;;18.30;73.9
13058;BME280;6595;49.578;11.012;2023-07-24T00:46:24;984.187;;;18.24;73.4
13058;BME280;6595;49.578;11.012;2023-07-24T00:48:24;984.047;;;18.03;75.4
13058;BME280;6595;49.578;11.012;2023-07-24T00:50:24;983.812;;;17.87;77.9
13058;BME280;6595;49.578;11.012;2023-07-24T00:52:25;983.535;;;17.67;79.3
13058;BME280;6595;49.578;11.012;2023-07-24T00:54:24;983.347;;;17.60;80.2
13058;BME280;6595;49.578;11.012;2023-07-24T00:56:23;983.295;;;17.53;81.0
13058;BME280;6595;49.578;11.012;2023-07-24T00:58:23;983.333;;;17.49;81.5
13058;BME280;6595;49.578;11.012;2023-07-24T01:00:24;983.417;;;17.36;81.7
13058;BME280;6595;49.578;11.012;2023-07-24T01:02:23;982.870;;;17.27;83.2
13058;BME280;6595;49.578;11.012;2023-07-24T01:04:23;982.783;;;17.26;83.5
13058;BME280;6595;49.578;11.012;2023-07-24T01:06:24;982.750;;;17.29;83.0
13058;BME280;6595;49.578;11.012;2023-07-24T01:08:24;982.578;;;17.26;83.6
13058;BME280;6595;49.578;11.012;2023-07-24T01:10:23;982.552;;;17.32;83.5
13058;BME280;6595;49.578;11.012;2023-07-24T01:12:29;982.598;;;17.36;83.4
13058;BME280;6595;49.578;11.012;2023-07-24T01:14:27;982.644;;;17.32;83.1
13058;BME280;6595;49.578;11.012;2023-07-24T01:16:26;982.548;;;17.29;83.2
13058;BME280;6595;49.578;11.012;2023-07-24T01:18:24;982.516;;;17.32;83.3
13058;BME280;6595;49.578;11.012;2023-07-24T01:20:26;982.466;;;17.40;83.2
13058;BME280;6595;49.578;11.012;2023-07-24T01:22:32;982.356;;;17.42;83.2
13058;BME280;6595;49.578;11.012;2023-07-24T01:24:30;982.507;;;17.35;83.5
13058;BME280;6595;49.578;11.012;2023-07-24T01:26:24;982.643;;;17.33;84.5
13058;BME280;6595;49.578;11.012;2023-07-24T01:28:24;982.626;;;17.29;84.5
13058;BME280;6595;49.578;11.012;2023-07-24T01:30:23;982.696;;;17.26;83.8
13058;BME280;6595;49.578;11.012;2023-07-24T01:32:24;983.070;;;17.25;83.1
13058;BME280;6595;49.578;11.012;2023-07-24T01:34:23;983.044;;;17.25;83.5
13058;BME280;6595;49.578;11.012;2023-07-24T01:36:24;983.076;;;17.25;84.8
13058;BME280;6595;49.578;11.012;2023-07-24T01:38:24;982.542;;;17.27;83.8
13058;BME280;6595;49.578;11.012;2023-07-24T01:40:23;982.351;;;17.30;83.3
13058;BME280;6595;49.578;11.012;2023-07-24T01:42:25;982.181;;;17.33;83.2
13058;BME280;6595;49.578;11.012;2023-07-24T01:44:24;982.185;;;17.30;82.8
13058;BME280;6595;49.578;11.012;2023-07-24T01:46:23;981.925;;;17.35;83.0
13058;BME280;6595;49.578;11.012;2023-07-24T01:48:23;981.923;;;17.35;83.0
13058;BME280;6595;49.578;11.012;2023-07-24T01:50:24;981.992;;;17.36;82.6
13058;BME280;6595;49.578;11.012;2023-07-24T01:52:23;981.962;;;17.30;83.6
13058;BME280;6595;49.578;11.012;2023-07-24T01:54:23;981.972;;;17.30;83.3
13058;BME280;6595;49.578;11.012;2023-07-24T01:56:24;982.008;;;17.29;83.6
13058;BME280;6595;49.578;11.012;2023-07-24T01:58:24;982.043;;;17.29;84.1
13058;BME280;6595;49.578;11.012;2023-07-24T02:00:23;982.088;;;17.32;84.2
13058;BME280;6595;49.578;11.012;2023-07-24T02:02:24;981.975;;;17.35;84.5
13058;BME280;6595;49.578;11.012;2023-07-24T02:04:24;981.975;;;17.36;84.1
13058;BME280;6595;49.578;11.012;2023-07-24T02:06:23;982.049;;;17.37;83.8
13058;BME280;6595;49.578;11.012;2023-07-24T02:08:23;981.958;;;17.42;83.7
13058;BME280;6595;49.578;11.012;2023-07-24T02:10:24;981.991;;;17.39;84.0
13058;BME280;6595;49.578;11.012;2023-07-24T02:12:24;981.899;;;17.40;84.1
13058;BME280;6595;49.578;11.012;2023-07-24T02:14:23;981.899;;;17.40;84.1
13058;BME280;6595;49.578;11.012;2023-07-24T02:16:23;981.852;;;17.40;84.4
13058;BME280;6595;49.578;11.012;2023-07-24T02:18:24;981.839;;;17.39;84.6
13058;BME280;6595;49.578;11.012;2023-07-24T02:20:23;981.826;;;17.32;84.7
13058;BME280;6595;49.578;11.012;2023-07-24T02:22:24;981.849;;;17.32;84.6
13058;BME280;6595;49.578;11.012;2023-07-24T02:24:23;981.911;;;17.29;85.2
13058;BME280;6595;49.578;11.012;2023-07-24T02:26:23;981.905;;;17.15;85.6
13058;BME280;6595;49.578;11.012;2023-07-24T02:28:24;981.878;;;17.21;85.8
13058;BME280;6595;49.578;11.012;2023-07-24T02:30:23;981.758;;;17.25;85.7
13058;BME280;6595;49.578;11.012;2023-07-24T02:32:24;981.730;;;17.18;85.3
13058;BME280;6595;49.578;11.012;2023-07-24T02:34:24;981.707;;;17.14;85.4
13058;BME280;6595;49.578;11.012;2023-07-24T02:36:23;981.781;;;17.09;85.2
13058;BME280;6595;49.578;11.012;2023-07-24T02:38:23;981.800;;;17.09;85.3
13058;BME280;6595;49.578;11.012;2023-07-24T02:40:24;981.841;;;17.04;84.9
13058;BME280;6595;49.578;11.012;2023-07-24T02:42:23;981.867;;;17.02;84.8
13058;BME280;6595;49.578;11.012;2023-07-24T02:44:24;981.892;;;17.06;85.1
13058;BME280;6595;49.578;11.012;2023-07-24T02:46:24;981.884;;;17.04;85.3
13058;BME280;6595;49.578;11.012;2023-07-24T02:48:23;981.895;;;17.05;85.5
13058;BME280;6595;49.578;11.012;2023-07-24T02:50:24;981.933;;;17.02;85.3
13058;BME280;6595;49.578;11.012;2023-07-24T02:52:24;981.910;;;17.02;85.4
13058;BME280;6595;49.578;11.012;2023-07-24T02:54:25;981.951;;;16.99;85.9
13058;BME280;6595;49.578;11.012;2023-07-24T02:56:23;981.873;;;16.98;85.6
13058;BME280;6595;49.578;11.012;2023-07-24T02:58:24;981.844;;;17.01;86.3
13058;BME280;6595;49.578;11.012;2023-07-24T03:00:23;981.835;;;16.98;86.1
13058;BME280;6595;49.578;11.012;2023-07-24T03:02:23;981.934;;;16.96;86.5
13058;BME280;6595;49.578;11.012;2023-07-24T03:04:23;981.977;;;16.98;86.8
13058;BME280;6595;49.578;11.012;2023-07-24T03:06:25;982.015;;;16.94;86.4
13058;BME280;6595;49.578;11.012;2023-07-24T03:08:23;981.885;;;16.94;86.6
13058;BME280;6595;49.578;11.012;2023-07-24T03:10:24;981.891;;;16.92;86.6
13058;BME280;6595;49.578;11.012;2023-07-24T03:12:24;981.855;;;16.98;86.5
13058;BME280;6595;49.578;11.012;2023-07-24T03:14:23;981.880;;;16.98;87.5
13058;BME280;6595;49.578;11.012;2023-07-24T03:16:23;981.905;;;16.91;87.3
13058;BME280;6595;49.578;11.012;2023-07-24T03:18:24;981.828;;;16.88;87.7
13058;BME280;6595;49.578;11.012;2023-07-24T03:20:23;981.697;;;17.04;87.3
13058;BME280;6595;49.578;11.012;2023-07-24T03:22:24;981.701;;;16.98;87.6
13058;BME280;6595;49.578;11.012;2023-07-24T03:24:24;981.578;;;16.95;88.4
13058;BME280;6595;49.578;11.012;2023-07-24T03:26:23;981.635;;;16.95;87.1
13058;BME280;6595;49.578;11.012;2023-07-24T03:28:23;981.744;;;16.91;87.9
13058;BME280;6595;49.578;11.012;2023-07-24T03:30:24;981.637;;;16.91;87.6
13058;BME280;6595;49.578;11.012;2023-07-24T03:32:24;981.628;;;16.95;87.3
13058;BME280;6595;49.578;11.012;2023-07-24T03:34:23;981.645;;;17.01;87.1
13058;BME280;6595;49.578;11.012;2023-07-24T03:36:23;981.638;;;16.99;86.9
13058;BME280;6595;49.578;11.012;2023-07-24T03:38:24;981.563;;;16.96;88.1
13058;BME280;6595;49.578;11.012;2023-07-24T03:40:23;981.644;;;16.92;88.3
13058;BME280;6595;49.578;11.012;2023-07-24T03:42:25;981.649;;;16.92;88.1
13058;BME280;6595;49.578;11.012;2023-07-24T03:44:24;981.571;;;16.86;88.3
13058;BME280;6595;49.578;11.012;2023-07-24T03:46:24;981.713;;;16.79;87.9
13058;BME280;6595;49.578;11.012;2023-07-24T03:48:23;981.723;;;16.79;88.2
13058;BME280;6595;49.578;11.012;2023-07-24T03:50:24;981.622;;;16.81;88.1
13058;BME280;6595;49.578;11.012;2023-07-24T03:52:23;981.582;;;16.75;88.2
13058;BME280;6595;49.578;11.012;2023-07-24T03:54:23;981.542;;;16.81;88.4
13058;BME280;6595;49.578;11.012;2023-07-24T03:56:24;981.415;;;16.72;88.4
13058;BME280;6595;49.578;11.012;2023-07-24T03:58:23;981.435;;;16.64;88.4
13058;BME280;6595;49.578;11.012;2023-07-24T04:00:23;981.437;;;16.67;88.2
13058;BME280;6595;49.578;11.012;2023-07-24T04:02:24;981.391;;;16.62;88.3
13058;BME280;6595;49.578;11.012;2023-07-24T04:04:24;981.416;;;16.55;88.4
13058;BME280;6595;49.578;11.012;2023-07-24T04:06:23;981.417;;;16.55;88.7
13058;BME280;6595;49.578;11.012;2023-07-24T04:08:23;981.448;;;16.57;88.9
13058;BME280;6595;49.578;11.012;2023-07-24T04:10:24;981.380;;;16.60;88.2
13058;BME280;6595;49.578;11.012;2023-07-24T04:12:23;981.369;;;16.61;88.2
13058;BME280;6595;49.578;11.012;2023-07-24T04:14:23;981.225;;;16.61;88.4
13058;BME280;6595;49.578;11.012;2023-07-24T04:16:24;981.107;;;16.65;88.2
13058;BME280;6595;49.578;11.012;2023-07-24T04:18:23;981.120;;;16.68;88.2
13058;BME280;6595;49.578;11.012;2023-07-24T04:20:23;980.994;;;16.75;87.6
13058;BME280;6595;49.578;11.012;2023-07-24T04:22:25;981.044;;;16.78;87.6
13058;BME280;6595;49.578;11.012;2023-07-24T04:24:24;981.078;;;16.81;87.5
13058;BME280;6595;49.578;11.012;2023-07-24T04:26:23;980.803;;;16.91;86.9
13058;BME280;6595;49.578;11.012;2023-07-24T04:28:24;980.773;;;16.84;86.8
13058;BME280;6595;49.578;11.012;2023-07-24T04:30:24;980.681;;;16.94;86.4
13058;BME280;6595;49.578;11.012;2023-07-24T04:32:25;980.710;;;16.88;86.7
13058;BME280;6595;49.578;11.012;2023-07-24T04:34:23;980.660;;;16.85;86.6
13058;BME280;6595;49.578;11.012;2023-07-24T04:36:24;980.660;;;16.85;86.6
13058;BME280;6595;49.578;11.012;2023-07-24T04:38:23;980.804;;;16.79;86.7
13058;BME280;6595;49.578;11.012;2023-07-24T04:40:23;980.836;;;16.78;87.0
13058;BME280;6595;49.578;11.012;2023-07-24T04:42:24;980.828;;;16.89;86.7
13058;BME280;6595;49.578;11.012;2023-07-24T04:44:23;980.742;;;16.99;86.2
13058;BME280;6595;49.578;11.012;2023-07-24T04:46:23;980.715;;;17.08;86.7
13058;BME280;6595;49.578;11.012;2023-07-24T04:48:24;980.779;;;17.32;85.0
13058;BME280;6595;49.578;11.012;2023-07-24T04:50:23;980.804;;;17.37;84.8
13058;BME280;6595;49.578;11.012;2023-07-24T04:52:23;980.745;;;17.56;84.5
13058;BME280;6595;49.578;11.012;2023-07-24T04:54:24;980.765;;;17.67;84.4
13058;BME280;6595;49.578;11.012;2023-07-24T04:56:23;980.986;;;17.77;84.1
13058;BME280;6595;49.578;11.012;2023-07-24T04:58:23;981.012;;;17.79;83.8
13058;BME280;6595;49.578;11.012;2023-07-24T05:00:24;981.216;;;17.77;83.3
13058;BME280;6595;49.578;11.012;2023-07-24T05:02:23;981.437;;;17.67;82.8
13058;BME280;6595;49.578;11.012;2023-07-24T05:04:23;981.604;;;17.65;83.3
13058;BME280;6595;49.578;11.012;2023-07-24T05:06:24;981.997;;;17.66;84.1
13058;BME280;6595;49.578;11.012;2023-07-24T05:08:24;982.087;;;17.66;84.5
13058;BME280;6595;49.578;11.012;2023-07-24T05:10:23;982.261;;;18.00;82.6
13058;BME280;6595;49.578;11.012;2023-07-24T05:12:24;982.101;;;17.81;84.0
13058;BME280;6595;49.578;11.012;2023-07-24T05:14:24;981.788;;;17.70;84.5
13058;BME280;6595;49.578;11.012;2023-07-24T05:16:23;981.452;;;17.76;85.3
13058;BME280;6595;49.578;11.012;2023-07-24T05:18:23;981.544;;;17.72;85.5
13058;BME280;6595;49.578;11.012;2023-07-24T05:20:24;981.565;;;17.66;85.9
13058;BME280;6595;49.578;11.012;2023-07-24T05:22:23;981.417;;;17.72;85.9
13058;BME280;6595;49.578;11.012;2023-07-24T05:24:23;981.287;;;17.80;85.8
13058;BME280;6595;49.578;11.012;2023-07-24T05:26:24;981.299;;;17.84;86.0
13058;BME280;6595;49.578;11.012;2023-07-24T05:28:23;981.296;;;17.81;86.1
13058;BME280;6595;49.578;11.012;2023-07-24T05:30:23;981.292;;;17.84;86.0
13058;BME280;6595;49.578;11.012;2023-07-24T05:32:24;981.183;;;17.87;85.8
13058;BME280;6595;49.578;11.012;2023-07-24T05:34:24;981.158;;;17.97;85.8
13058;BME280;6595;49.578;11.012;2023-07-24T05:36:23;981.063;;;17.89;87.3
13058;BME280;6595;49.578;11.012;2023-07-24T05:38:24;980.968;;;17.96;86.4
13058;BME280;6595;49.578;11.012;2023-07-24T05:40:24;980.990;;;18.08;85.6
13058;BME280;6595;49.578;11.012;2023-07-24T05:42:23;980.913;;;18.14;85.2
13058;BME280;6595;49.578;11.012;2023-07-24T05:44:24;980.867;;;18.28;84.8
13058;BME280;6595;49.578;11.012;2023-07-24T05:46:24;980.964;;;18.34;84.4
13058;BME280;6595;49.578;11.012;2023-07-24T05:48:24;980.956;;;18.41;84.4
13058;BME280;6595;49.578;11.012;2023-07-24T05:50:24;981.048;;;18.47;84.4
13058;BME280;6595;49.578;11.012;2023-07-24T05:52:23;981.011;;;18.51;84.4
13058;BME280;6595;49.578;11.012;2023-07-24T05:54:23;981.083;;;18.56;84.4
13058;BME280;6595;49.578;11.012;2023-07-24T05:56:24;981.099;;;18.66;83.9
13058;BME280;6595;49.578;11.012;2023-07-24T05:58:23;981.187;;;18.80;83.5
13058;BME280;6595;49.578;11.012;2023-07-24T06:00:23;981.242;;;18.91;83.1
13058;BME280;6595;49.578;11.012;2023-07-24T06:02:24;981.266;;;19.03;82.3
13058;BME280;6595;49.578;11.012;2023-07-24T06:04:24;981.266;;;19.03;82.3
13058;BME280;6595;49.578;11.012;2023-07-24T06:06:23;981.255;;;19.22;82.1
13058;BME280;6595;49.578;11.012;2023-07-24T06:08:23;981.263;;;19.32;81.6
13058;BME280;6595;49.578;11.012;2023-07-24T06:10:24;981.171;;;19.48;80.6
13058;BME280;6595;49.578;11.012;2023-07-24T06:12:23;981.171;;;19.48;80.6
13058;BME280;6595;49.578;11.012;2023-07-24T06:14:23;981.247;;;19.70;78.4
13058;BME280;6595;49.578;11.012;2023-07-24T06:16:24;981.202;;;19.73;78.9
13058;BME280;6595;49.578;11.012;2023-07-24T06:18:23;981.296;;;19.86;79.0
13058;BME280;6595;49.578;11.012;2023-07-24T06:20:23;981.297;;;20.00;78.3
13058;BME280;6595;49.578;11.012;2023-07-24T06:22:24;981.350;;;20.07;77.9
13058;BME280;6595;49.578;11.012;2023-07-24T06:24:23;981.285;;;20.00;77.9
13058;BME280;6595;49.578;11.012;2023-07-24T06:26:23;981.351;;;19.98;77.9
13058;BME280;6595;49.578;11.012;2023-07-24T06:28:24;981.231;;;20.08;77.2
13058;BME280;6595;49.578;11.012;2023-07-24T06:30:24;981.171;;;20.13;76.8
13058;BME280;6595;49.578;11.012;2023-07-24T06:32:23;981.175;;;20.11;77.3
13058;BME280;6595;49.578;11.012;2023-07-24T06:34:23;981.175;;;20.11;77.3
13058;BME280;6595;49.578;11.012;2023-07-24T06:36:24;981.007;;;20.08;77.8
13058;BME280;6595;49.578;11.012;2023-07-24T06:38:23;980.954;;;20.11;77.6
13058;BME280;6595;49.578;11.012;2023-07-24T06:40:23;980.991;;;20.27;75.6
13058;BME280;6595;49.578;11.012;2023-07-24T06:42:24;980.965;;;20.18;75.5
13058;BME280;6595;49.578;11.012;2023-07-24T06:44:23;980.953;;;20.27;75.6
13058;BME280;6595;49.578;11.012;2023-07-24T06:46:23;980.869;;;20.31;75.6
13058;BME280;6595;49.578;11.012;2023-07-24T06:48:24;980.894;;;20.32;75.5
13058;BME280;6595;49.578;11.012;2023-07-24T06:50:23;980.791;;;20.39;76.1
13058;BME280;6595;49.578;11.012;2023-07-24T06:52:23;980.845;;;20.39;76.5
13058;BME280;6595;49.578;11.012;2023-07-24T06:54:24;980.772;;;20.56;75.9
13058;BME280;6595;49.578;11.012;2023-07-24T06:56:23;980.700;;;20.52;76.1
13058;BME280;6595;49.578;11.012;2023-07-24T06:58:23;980.755;;;20.75;74.2
13058;BME280;6595;49.578;11.012;2023-07-24T07:00:24;980.780;;;20.95;74.6
13058;BME280;6595;49.578;11.012;2023-07-24T07:02:23;980.769;;;20.95;73.7
13058;BME280;6595;49.578;11.012;2023-07-24T07:04:23;980.760;;;21.09;73.5
13058;BME280;6595;49.578;11.012;2023-07-24T07:06:23;980.829;;;21.09;74.4
13058;BME280;6595;49.578;11.012;2023-07-24T07:08:23;980.806;;;21.36;73.2
13058;BME280;6595;49.578;11.012;2023-07-24T07:10:24;980.732;;;21.43;72.5
13058;BME280;6595;49.578;11.012;2023-07-24T07:12:24;980.730;;;21.50;72.0
13058;BME280;6595;49.578;11.012;2023-07-24T07:14:23;980.707;;;21.66;71.5
13058;BME280;6595;49.578;11.012;2023-07-24T07:16:24;980.724;;;21.63;71.1
13058;BME280;6595;49.578;11.012;2023-07-24T07:18:24;980.696;;;21.72;70.2
13058;BME280;6595;49.578;11.012;2023-07-24T07:20:23;980.711;;;21.73;70.4
13058;BME280;6595;49.578;11.012;2023-07-24T07:22:24;980.690;;;21.64;70.6
13058;BME280;6595;49.578;11.012;2023-07-24T07:24:23;980.678;;;21.61;69.9
13058;BME280;6595;49.578;11.012;2023-07-24T07:26:23;980.609;;;21.57;70.4
13058;BME280;6595;49.578;11.012;2023-07-24T07:28:24;980.694;;;21.40;71.3
13058;BME280;6595;49.578;11.012;2023-07-24T07:30:24;980.662;;;21.26;73.0
13058;BME280;6595;49.578;11.012;2023-07-24T07:32:24;980.663;;;21.37;72.3
13058;BME280;6595;49.578;11.012;2023-07-24T07:34:23;980.663;;;21.29;72.9
13058;BME280;6595;49.578;11.012;2023-07-24T07:36:23;980.674;;;21.30;72.4
13058;BME280;6595;49.578;11.012;2023-07-24T07:38:24;980.678;;;21.45;72.9
13058;BME280;6595;49.578;11.012;2023-07-24T07:40:24;980.661;;;21.50;72.7
13058;BME280;6595;49.578;11.012;2023-07-24T07:42:23;980.541;;;21.26;72.6
13058;BME280;6595;49.578;11.012;2023-07-24T07:44:24;980.503;;;21.26;72.3
13058;BME280;6595;49.578;11.012;2023-07-24T07:46:23;980.549;;;21.21;71.6
13058;BME280;6595;49.578;11.012;2023-07-24T07:48:23;980.582;;;21.21;72.2
13058;BME280;6595;49.578;11.012;2023-07-24T07:50:24;980.631;;;21.29;72.2
13058;BME280;6595;49.578;11.012;2023-07-24T07:52:23;980.693;;;21.30;72.0
13058;BME280;6595;49.578;11.012;2023-07-24T07:54:23;980.689;;;21.36;73.0
13058;BME280;6595;49.578;11.012;2023-07-24T07:56:24;980.626;;;21.35;72.4
13058;BME280;6595;49.578;11.012;2023-07-24T07:58:23;980.604;;;21.33;72.9
13058;BME280;6595;49.578;11.012;2023-07-24T08:00:23;980.645;;;21.36;72.6
13058;BME280;6595;49.578;11.012;2023-07-24T08:02:24;980.645;;;21.36;72.6
13058;BME280;6595;49.578;11.012;2023-07-24T08:04:23;980.625;;;21.42;73.6
13058;BME280;6595;49.578;11.012;2023-07-24T08:06:24;980.585;;;21.50;72.7
13058;BME280;6595;49.578;11.012;2023-07-24T08:08:24;980.642;;;21.47;72.7
13058;BME280;6595;49.578;11.012;2023-07-24T08:10:23;980.695;;;21.61;72.4
13058;BME280;6595;49.578;11.012;2023-07-24T08:12:24;980.672;;;21.64;72.6
13058;BME280;6595;49.578;11.012;2023-07-24T08:14:23;980.783;;;21.52;71.1
13058;BME280;6595;49.578;11.012;2023-07-24T08:16:23;980.788;;;21.57;72.1
13058;BME280;6595;49.578;11.012;2023-07-24T08:18:23;980.738;;;21.66;72.0
13058;BME280;6595;49.578;11.012;2023-07-24T08:20:24;980.722;;;21.74;72.2
13058;BME280;6595;49.578;11.012;2023-07-24T08:22:23;980.681;;;21.88;71.7
13058;BME280;6595;49.578;11.012;2023-07-24T08:24:24;980.646;;;22.03;70.3
13058;BME280;6595;49.578;11.012;2023-07-24T08:26:24;980.687;;;22.12;70.1
13058;BME280;6595;49.578;11.012;2023-07-24T08:28:23;980.707;;;22.40;69.9
13058;BME280;6595;49.578;11.012;2023-07-24T08:30:24;980.676;;;22.50;68.4
13058;BME280;6595;49.578;11.012;2023-07-24T08:32:23;980.698;;;22.54;68.5
13058;BME280;6595;49.578;11.012;2023-07-24T08:34:23;980.735;;;22.59;66.9
13058;BME280;6595;49.578;11.012;2023-07-24T08:36:24;980.549;;;22.64;66.0
13058;BME280;6595;49.578;11.012;2023-07-24T08:38:24;980.617;;;22.79;66.1
13058;BME280;6595;49.578;11.012;2023-07-24T08:40:23;980.664;;;22.86;65.8
13058;BME280;6595;49.578;11.012;2023-07-24T08:42:24;980.716;;;22.95;66.3
13058;BME280;6595;49.578;11.012;2023-07-24T08:44:25;980.573;;;22.94;64.7
13058;BME280;6595;49.578;11.012;2023-07-24T08:46:24;980.553;;;23.01;65.6
13058;BME280;6595;49.578;11.012;2023-07-24T08:48:25;980.560;;;23.05;65.3
13058;BME280;6595;49.578;11.012;2023-07-24T08:50:24;980.507;;;23.17;66.1
13058;BME280;6595;49.578;11.012;2023-07-24T08:52:23;980.507;;;23.17;66.1
13058;BME280;6595;49.578;11.012;2023-07-24T08:54:26;980.594;;;23.32;64.9
13058;BME280;6595;49.578;11.012;2023-07-24T08:56:23;980.518;;;23.33;65.2
13058;BME280;6595;49.578;11.012;2023-07-24T08:58:23;980.507;;;23.46;64.8
13058;BME280;6595;49.578;11.012;2023-07-24T09:00:24;980.518;;;23.53;64.6
13058;BME280;6595;49.578;11.012;2023-07-24T09:02:23;980.623;;;23.53;64.1
13058;BME280;6595;49.578;11.012;2023-07-24T09:04:24;980.616;;;23.45;65.0
13058;BME280;6595;49.578;11.012;2023-07-24T09:06:26;980.582;;;23.47;63.2
13058;BME280;6595;49.578;11.012;2023-07-24T09:08:31;980.586;;;23.50;64.0
13058;BME280;6595;49.578;11.012;2023-07-24T09:10:24;980.487;;;23.60;63.1
13058;BME280;6595;49.578;11.012;2023-07-24T09:12:23;980.485;;;23.63;63.7
13058;BME280;6595;49.578;11.012;2023-07-24T09:14:25;980.375;;;23.69;62.5
13058;BME280;6595;49.578;11.012;2023-07-24T09:16:25;980.348;;;23.70;62.6
13058;BME280;6595;49.578;11.012;2023-07-24T09:18:23;980.392;;;23.85;63.3
13058;BME280;6595;49.578;11.012;2023-07-24T09:20:24;980.349;;;23.80;63.2
13058;BME280;6595;49.578;11.012;2023-07-24T09:22:23;980.353;;;23.80;63.7
13058;BME280;6595;49.578;11.012;2023-07-24T09:24:24;980.346;;;23.80;62.5
13058;BME280;6595;49.578;11.012;2023-07-24T09:26:23;980.448;;;23.83;62.5
13058;BME280;6595;49.578;11.012;2023-07-24T09:28:23;980.498;;;23.90;62.3
13058;BME280;6595;49.578;11.012;2023-07-24T09:30:24;980.494;;;23.87;62.1
13058;BME280;6595;49.578;11.012;2023-07-24T09:32:26;980.492;;;23.97;61.4
13058;BME280;6595;49.578;11.012;2023-07-24T09:34:23;980.422;;;23.99;60.8
13058;BME280;6595;49.578;11.012;2023-07-24T09:36:24;980.456;;;24.11;61.4
13058;BME280;6595;49.578;11.012;2023-07-24T09:38:24;980.416;;;24.10;62.7
13058;BME280;6595;49.578;11.012;2023-07-24T09:40:23;980.420;;;23.96;60.9
13058;BME280;6595;49.578;11.012;2023-07-24T09:42:28;980.497;;;23.90;61.5
13058;BME280;6595;49.578;11.012;2023-07-24T09:44:25;980.497;;;23.90;61.5
13058;BME280;6595;49.578;11.012;2023-07-24T09:46:24;980.646;;;23.85;60.9
13058;BME280;6595;49.578;11.012;2023-07-24T09:48:25;980.643;;;23.76;61.6
13058;BME280;6595;49.578;11.012;2023-07-24T09:50:24;980.773;;;23.67;61.9
13058;BME280;6595;49.578;11.012;2023-07-24T09:52:24;980.708;;;23.61;62.7
13058;BME280;6595;49.578;11.012;2023-07-24T09:54:26;980.719;;;23.45;61.8
13058;BME280;6595;49.578;11.012;2023-07-24T09:56:23;980.603;;;23.33;62.3
13058;BME280;6595;49.578;11.012;2023-07-24T09:58:24;980.639;;;23.20;62.9
13058;BME280;6595;49.578;11.012;2023-07-24T10:00:25;980.519;;;23.06;61.6
13058;BME280;6595;49.578;11.012;2023-07-24T10:02:24;980.332;;;22.88;61.9
13058;BME280;6595;49.578;11.012;2023-07-24T10:04:23;980.331;;;22.80;63.0
13058;BME280;6595;49.578;11.012;2023-07-24T10:06:24;980.225;;;22.72;63.6
13058;BME280;6595;49.578;11.012;2023-07-24T10:08:24;980.116;;;22.74;64.4
13058;BME280;6595;49.578;11.012;2023-07-24T10:10:23;980.010;;;22.65;66.1
13058;BME280;6595;49.578;11.012;2023-07-24T10:12:24;980.053;;;22.48;66.5
13058;BME280;6595;49.578;11.012;2023-07-24T10:14:24;980.139;;;22.32;67.7
13058;BME280;6595;49.578;11.012;2023-07-24T10:16:23;980.198;;;22.04;68.1
13058;BME280;6595;49.578;11.012;2023-07-24T10:18:26;980.232;;;21.84;69.0
13058;BME280;6595;49.578;11.012;2023-07-24T10:20:32;980.188;;;21.78;69.1
13058;BME280;6595;49.578;11.012;2023-07-24T10:22:23;980.133;;;21.67;69.4
13058;BME280;6595;49.578;11.012;2023-07-24T10:24:28;980.125;;;21.78;69.5
13058;BME280;6595;49.578;11.012;2023-07-24T10:26:25;980.331;;;21.87;69.2
13058;BME280;6595;49.578;11.012;2023-07-24T10:28:30;980.353;;;21.86;69.2
13058;BME280;6595;49.578;11.012;2023-07-24T10:30:28;980.403;;;22.07;69.2
13058;BME280;6595;49.578;11.012;2023-07-24T10:32:23;980.379;;;22.28;67.2
13058;BME280;6595;49.578;11.012;2023-07-24T10:34:24;980.352;;;22.50;67.6
13058;BME280;6595;49.578;11.012;2023-07-24T10:36:23;980.382;;;22.56;66.4
13058;BME280;6595;49.578;11.012;2023-07-24T10:38:33;980.501;;;22.79;65.6
13058;BME280;6595;49.578;11.012;2023-07-24T10:40:24;980.518;;;22.92;66.0
13058;BME280;6595;49.578;11.012;2023-07-24T10:42:23;980.473;;;22.99;64.4
13058;BME280;6595;49.578;11.012;2023-07-24T10:44:30;980.522;;;22.94;63.9
13058;BME280;6595;49.578;11.012;2023-07-24T10:46:34;980.523;;;22.92;64.1
13058;BME280;6595;49.578;11.012;2023-07-24T10:48:24;980.455;;;22.86;64.3
13058;BME280;6595;49.578;11.012;2023-07-24T10:50:24;980.557;;;22.74;64.8
13058;BME280;6595;49.578;11.012;2023-07-24T10:52:27;980.630;;;22.66;65.8